sensor_id;sensor_type;location;lat;lon;timestamp;temperature;humidity
36924;DHT22;22841;50.252;18.688;2022-08-21T00:00:59;19.20;99.90
36924;DHT22;22841;50.252;18.688;2022-08-21T00:03:28;19.20;99.90
36924;DHT22;22841;50.252;18.688;2022-08-21T00:05:54;19.20;99.90
36924;DHT22;22841;50.252;18.688;2022-08-21T00:08:20;19.30;99.90
36924;DHT22;22841;50.252;18.688;2022-08-21T00:10:47;19.30;99.90
36924;DHT22;22841;50.252;18.688;2022-08-21T00:13:14;19.30;99.90
36924;DHT22;22841;50.252;18.688;2022-08-21T00:15:41;19.40;99.90
36924;DHT22;22841;50.252;18.688;2022-08-21T00:18:09;19.40;99.90
36924;DHT22;22841;50.252;18.688;2022-08-21T00:20:37;19.30;99.90
36924;DHT22;22841;50.252;18.688;2022-08-21T00:23:04;19.40;99.90
36924;DHT22;22841;50.252;18.688;2022-08-21T00:25:31;19.40;99.90
36924;DHT22;22841;50.252;18.688;2022-08-21T00:27:57;19.40;99.90
36924;DHT22;22841;50.252;18.688;2022-08-21T00:30:25;19.40;99.90
36924;DHT22;22841;50.252;18.688;2022-08-21T00:32:53;19.40;99.90
36924;DHT22;22841;50.252;18.688;2022-08-21T00:35:25;19.40;99.90
36924;DHT22;22841;50.252;18.688;2022-08-21T00:37:51;19.40;99.90
36924;DHT22;22841;50.252;18.688;2022-08-21T00:40:20;19.40;99.90
36924;DHT22;22841;50.252;18.688;2022-08-21T00:42:50;19.40;99.90
36924;DHT22;22841;50.252;18.688;2022-08-21T00:45:16;19.40;99.90
36924;DHT22;22841;50.252;18.688;2022-08-21T00:47:42;19.40;99.90
36924;DHT22;22841;50.252;18.688;2022-08-21T00:50:09;19.40;99.90
36924;DHT22;22841;50.252;18.688;2022-08-21T00:52:46;19.40;99.90
36924;DHT22;22841;50.252;18.688;2022-08-21T00:55:13;19.40;99.90
36924;DHT22;22841;50.252;18.688;2022-08-21T00:57:50;19.40;99.90
36924;DHT22;22841;50.252;18.688;2022-08-21T01:00:28;19.40;99.90
36924;DHT22;22841;50.252;18.688;2022-08-21T01:02:56;19.40;99.90
36924;DHT22;22841;50.252;18.688;2022-08-21T01:05:22;19.40;99.90
36924;DHT22;22841;50.252;18.688;2022-08-21T01:07:48;19.40;99.90
36924;DHT22;22841;50.252;18.688;2022-08-21T01:10:15;19.40;99.90
36924;DHT22;22841;50.252;18.688;2022-08-21T01:12:41;19.40;99.90
36924;DHT22;22841;50.252;18.688;2022-08-21T01:15:11;19.40;99.90
36924;DHT22;22841;50.252;18.688;2022-08-21T01:17:40;19.40;99.90
36924;DHT22;22841;50.252;18.688;2022-08-21T01:20:09;19.40;99.90
36924;DHT22;22841;50.252;18.688;2022-08-21T01:22:35;19.40;99.90
36924;DHT22;22841;50.252;18.688;2022-08-21T01:25:04;19.40;99.90
36924;DHT22;22841;50.252;18.688;2022-08-21T01:27:32;19.40;99.90
36924;DHT22;22841;50.252;18.688;2022-08-21T01:30:04;19.40;99.90
36924;DHT22;22841;50.252;18.688;2022-08-21T01:32:33;19.40;99.90
36924;DHT22;22841;50.252;18.688;2022-08-21T01:34:59;19.40;99.90
36924;DHT22;22841;50.252;18.688;2022-08-21T01:37:25;19.40;99.90
36924;DHT22;22841;50.252;18.688;2022-08-21T01:39:51;19.40;99.90
36924;DHT22;22841;50.252;18.688;2022-08-21T01:42:17;19.40;99.90
36924;DHT22;22841;50.252;18.688;2022-08-21T01:44:44;19.40;99.90
36924;DHT22;22841;50.252;18.688;2022-08-21T01:47:12;19.40;99.90
36924;DHT22;22841;50.252;18.688;2022-08-21T01:49:41;19.40;99.90
36924;DHT22;22841;50.252;18.688;2022-08-21T01:52:08;19.40;99.90
36924;DHT22;22841;50.252;18.688;2022-08-21T01:54:35;19.40;99.90
36924;DHT22;22841;50.252;18.688;2022-08-21T01:57:02;19.40;99.90
36924;DHT22;22841;50.252;18.688;2022-08-21T01:59:28;19.40;99.90
36924;DHT22;22841;50.252;18.688;2022-08-21T02:01:54;19.40;99.90
36924;DHT22;22841;50.252;18.688;2022-08-21T02:04:21;19.40;99.90
36924;DHT22;22841;50.252;18.688;2022-08-21T02:06:48;19.30;99.90
36924;DHT22;22841;50.252;18.688;2022-08-21T02:09:14;19.30;99.90
36924;DHT22;22841;50.252;18.688;2022-08-21T02:11:41;19.40;99.90
36924;DHT22;22841;50.252;18.688;2022-08-21T02:14:08;19.30;99.90
36924;DHT22;22841;50.252;18.688;2022-08-21T02:16:35;19.30;99.90
36924;DHT22;22841;50.252;18.688;2022-08-21T02:19:02;19.30;99.90
36924;DHT22;22841;50.252;18.688;2022-08-21T02:21:28;19.30;99.90
36924;DHT22;22841;50.252;18.688;2022-08-21T02:23:54;19.20;99.90
36924;DHT22;22841;50.252;18.688;2022-08-21T02:26:22;19.30;99.90
36924;DHT22;22841;50.252;18.688;2022-08-21T02:28:48;19.30;99.90
36924;DHT22;22841;50.252;18.688;2022-08-21T02:31:14;19.30;99.90
36924;DHT22;22841;50.252;18.688;2022-08-21T02:33:41;19.30;99.90
36924;DHT22;22841;50.252;18.688;2022-08-21T02:36:08;19.30;99.90
36924;DHT22;22841;50.252;18.688;2022-08-21T02:38:35;19.30;99.90
36924;DHT22;22841;50.252;18.688;2022-08-21T02:41:12;19.30;99.90
36924;DHT22;22841;50.252;18.688;2022-08-21T02:43:38;19.30;99.90
36924;DHT22;22841;50.252;18.688;2022-08-21T02:46:05;19.30;99.90
36924;DHT22;22841;50.252;18.688;2022-08-21T02:48:33;19.30;99.90
36924;DHT22;22841;50.252;18.688;2022-08-21T02:51:03;19.30;99.90
36924;DHT22;22841;50.252;18.688;2022-08-21T02:53:30;19.30;99.90
36924;DHT22;22841;50.252;18.688;2022-08-21T02:55:58;19.30;99.90
36924;DHT22;22841;50.252;18.688;2022-08-21T02:58:30;19.30;99.90
36924;DHT22;22841;50.252;18.688;2022-08-21T03:00:57;19.30;99.90
36924;DHT22;22841;50.252;18.688;2022-08-21T03:03:24;19.30;99.90
36924;DHT22;22841;50.252;18.688;2022-08-21T03:05:51;19.40;99.90
36924;DHT22;22841;50.252;18.688;2022-08-21T03:08:18;19.30;99.90
36924;DHT22;22841;50.252;18.688;2022-08-21T03:10:47;19.40;99.90
36924;DHT22;22841;50.252;18.688;2022-08-21T03:13:14;19.30;99.90
36924;DHT22;22841;50.252;18.688;2022-08-21T03:15:41;19.40;99.90
36924;DHT22;22841;50.252;18.688;2022-08-21T03:18:08;19.40;99.90
36924;DHT22;22841;50.252;18.688;2022-08-21T03:20:36;19.30;99.90
36924;DHT22;22841;50.252;18.688;2022-08-21T03:23:04;19.40;99.90
36924;DHT22;22841;50.252;18.688;2022-08-21T03:25:30;19.40;99.90
36924;DHT22;22841;50.252;18.688;2022-08-21T03:28:04;19.40;99.90
36924;DHT22;22841;50.252;18.688;2022-08-21T03:30:30;19.40;99.90
36924;DHT22;22841;50.252;18.688;2022-08-21T03:32:58;19.40;99.90
36924;DHT22;22841;50.252;18.688;2022-08-21T03:35:25;19.40;99.90
36924;DHT22;22841;50.252;18.688;2022-08-21T03:37:51;19.40;99.90
36924;DHT22;22841;50.252;18.688;2022-08-21T03:40:19;19.40;99.90
36924;DHT22;22841;50.252;18.688;2022-08-21T03:42:46;19.40;99.90
36924;DHT22;22841;50.252;18.688;2022-08-21T03:45:16;19.40;99.90
36924;DHT22;22841;50.252;18.688;2022-08-21T03:47:57;19.50;99.90
36924;DHT22;22841;50.252;18.688;2022-08-21T03:50:27;19.50;99.90
36924;DHT22;22841;50.252;18.688;2022-08-21T03:52:54;19.50;99.90
36924;DHT22;22841;50.252;18.688;2022-08-21T03:55:20;19.50;99.90
36924;DHT22;22841;50.252;18.688;2022-08-21T03:57:47;19.50;99.90
36924;DHT22;22841;50.252;18.688;2022-08-21T04:00:14;19.50;99.90
36924;DHT22;22841;50.252;18.688;2022-08-21T04:02:41;19.50;99.90
36924;DHT22;22841;50.252;18.688;2022-08-21T04:05:09;19.60;99.90
36924;DHT22;22841;50.252;18.688;2022-08-21T04:07:35;19.60;99.90
36924;DHT22;22841;50.252;18.688;2022-08-21T04:10:03;19.50;99.90
36924;DHT22;22841;50.252;18.688;2022-08-21T04:12:29;19.60;99.90
36924;DHT22;22841;50.252;18.688;2022-08-21T04:14:56;19.60;99.90
36924;DHT22;22841;50.252;18.688;2022-08-21T04:17:22;19.50;99.90
36924;DHT22;22841;50.252;18.688;2022-08-21T04:19:48;19.60;99.90
36924;DHT22;22841;50.252;18.688;2022-08-21T04:22:15;19.50;99.90
36924;DHT22;22841;50.252;18.688;2022-08-21T04:24:41;19.60;99.90
36924;DHT22;22841;50.252;18.688;2022-08-21T04:27:07;19.60;99.90
36924;DHT22;22841;50.252;18.688;2022-08-21T04:29:33;19.50;99.90
36924;DHT22;22841;50.252;18.688;2022-08-21T04:31:59;19.60;99.90
36924;DHT22;22841;50.252;18.688;2022-08-21T04:34:26;19.60;99.90
36924;DHT22;22841;50.252;18.688;2022-08-21T04:36:52;19.60;99.90
36924;DHT22;22841;50.252;18.688;2022-08-21T04:39:18;19.60;99.90
36924;DHT22;22841;50.252;18.688;2022-08-21T04:41:44;19.60;99.90
36924;DHT22;22841;50.252;18.688;2022-08-21T04:44:10;19.70;99.90
36924;DHT22;22841;50.252;18.688;2022-08-21T04:46:36;19.60;99.90
36924;DHT22;22841;50.252;18.688;2022-08-21T04:49:02;19.70;99.90
36924;DHT22;22841;50.252;18.688;2022-08-21T04:51:32;19.70;99.90
36924;DHT22;22841;50.252;18.688;2022-08-21T04:54:09;19.70;99.90
36924;DHT22;22841;50.252;18.688;2022-08-21T04:56:41;19.70;99.90
36924;DHT22;22841;50.252;18.688;2022-08-21T04:59:24;19.70;99.90
36924;DHT22;22841;50.252;18.688;2022-08-21T05:01:53;19.70;99.90
36924;DHT22;22841;50.252;18.688;2022-08-21T05:04:25;19.70;99.90
36924;DHT22;22841;50.252;18.688;2022-08-21T05:06:54;19.70;99.90
36924;DHT22;22841;50.252;18.688;2022-08-21T05:09:22;19.60;99.90
36924;DHT22;22841;50.252;18.688;2022-08-21T05:11:49;19.50;99.90
36924;DHT22;22841;50.252;18.688;2022-08-21T05:14:17;19.40;99.90
36924;DHT22;22841;50.252;18.688;2022-08-21T05:16:43;19.30;99.90
36924;DHT22;22841;50.252;18.688;2022-08-21T05:19:10;19.20;99.90
36924;DHT22;22841;50.252;18.688;2022-08-21T05:21:40;19.10;99.90
36924;DHT22;22841;50.252;18.688;2022-08-21T05:24:07;19.10;99.90
36924;DHT22;22841;50.252;18.688;2022-08-21T05:26:34;19.00;99.90
36924;DHT22;22841;50.252;18.688;2022-08-21T05:29:00;19.00;99.90
36924;DHT22;22841;50.252;18.688;2022-08-21T05:31:26;19.00;99.90
36924;DHT22;22841;50.252;18.688;2022-08-21T05:33:52;18.90;99.90
36924;DHT22;22841;50.252;18.688;2022-08-21T05:36:18;18.90;99.90
36924;DHT22;22841;50.252;18.688;2022-08-21T05:38:45;18.90;99.90
36924;DHT22;22841;50.252;18.688;2022-08-21T05:41:11;18.70;99.90
36924;DHT22;22841;50.252;18.688;2022-08-21T05:43:37;18.70;99.90
36924;DHT22;22841;50.252;18.688;2022-08-21T05:46:04;18.70;99.90
36924;DHT22;22841;50.252;18.688;2022-08-21T05:48:31;18.60;99.90
36924;DHT22;22841;50.252;18.688;2022-08-21T05:50:58;18.60;99.90
36924;DHT22;22841;50.252;18.688;2022-08-21T05:53:29;18.40;99.90
36924;DHT22;22841;50.252;18.688;2022-08-21T05:55:55;18.40;99.90
36924;DHT22;22841;50.252;18.688;2022-08-21T05:58:21;18.40;99.90
36924;DHT22;22841;50.252;18.688;2022-08-21T06:00:50;18.30;99.90
36924;DHT22;22841;50.252;18.688;2022-08-21T06:03:22;18.30;99.90
36924;DHT22;22841;50.252;18.688;2022-08-21T06:05:49;18.30;99.90
36924;DHT22;22841;50.252;18.688;2022-08-21T06:08:17;18.20;99.90
36924;DHT22;22841;50.252;18.688;2022-08-21T06:10:45;18.20;99.90
36924;DHT22;22841;50.252;18.688;2022-08-21T06:13:12;18.20;99.90
36924;DHT22;22841;50.252;18.688;2022-08-21T06:15:39;18.10;99.90
36924;DHT22;22841;50.252;18.688;2022-08-21T06:18:05;18.20;99.90
36924;DHT22;22841;50.252;18.688;2022-08-21T06:20:33;18.10;99.90
36924;DHT22;22841;50.252;18.688;2022-08-21T06:23:00;18.10;99.90
36924;DHT22;22841;50.252;18.688;2022-08-21T06:25:27;18.10;99.90
36924;DHT22;22841;50.252;18.688;2022-08-21T06:27:53;18.10;99.90
36924;DHT22;22841;50.252;18.688;2022-08-21T06:30:19;18.00;99.90
36924;DHT22;22841;50.252;18.688;2022-08-21T06:32:45;18.10;99.90
36924;DHT22;22841;50.252;18.688;2022-08-21T06:35:11;18.00;99.90
36924;DHT22;22841;50.252;18.688;2022-08-21T06:37:37;18.00;99.90
36924;DHT22;22841;50.252;18.688;2022-08-21T06:40:04;17.90;99.90
36924;DHT22;22841;50.252;18.688;2022-08-21T06:42:31;17.80;99.90
36924;DHT22;22841;50.252;18.688;2022-08-21T06:44:57;17.80;99.90
36924;DHT22;22841;50.252;18.688;2022-08-21T06:47:23;17.70;99.90
36924;DHT22;22841;50.252;18.688;2022-08-21T06:49:49;17.70;99.90
36924;DHT22;22841;50.252;18.688;2022-08-21T06:52:16;17.70;99.90
36924;DHT22;22841;50.252;18.688;2022-08-21T06:54:42;17.70;99.90
36924;DHT22;22841;50.252;18.688;2022-08-21T06:57:08;17.70;99.90
36924;DHT22;22841;50.252;18.688;2022-08-21T06:59:34;17.70;99.90
36924;DHT22;22841;50.252;18.688;2022-08-21T07:02:00;17.60;99.90
36924;DHT22;22841;50.252;18.688;2022-08-21T07:04:26;17.70;99.90
36924;DHT22;22841;50.252;18.688;2022-08-21T07:06:53;17.70;99.90
36924;DHT22;22841;50.252;18.688;2022-08-21T07:09:19;17.70;99.90
36924;DHT22;22841;50.252;18.688;2022-08-21T07:11:48;17.70;99.90
36924;DHT22;22841;50.252;18.688;2022-08-21T07:14:16;17.70;99.90
36924;DHT22;22841;50.252;18.688;2022-08-21T07:16:42;17.70;99.90
36924;DHT22;22841;50.252;18.688;2022-08-21T07:19:08;17.80;99.90
36924;DHT22;22841;50.252;18.688;2022-08-21T07:21:34;17.90;99.90
36924;DHT22;22841;50.252;18.688;2022-08-21T07:24:00;17.90;99.90
36924;DHT22;22841;50.252;18.688;2022-08-21T07:26:26;18.00;99.90
36924;DHT22;22841;50.252;18.688;2022-08-21T07:28:53;18.00;99.90
36924;DHT22;22841;50.252;18.688;2022-08-21T07:31:22;18.00;99.90
36924;DHT22;22841;50.252;18.688;2022-08-21T07:33:48;18.00;99.90
36924;DHT22;22841;50.252;18.688;2022-08-21T07:36:14;18.00;99.90
36924;DHT22;22841;50.252;18.688;2022-08-21T07:38:41;18.00;99.90
36924;DHT22;22841;50.252;18.688;2022-08-21T07:41:15;18.10;99.90
36924;DHT22;22841;50.252;18.688;2022-08-21T07:43:42;18.10;99.90
36924;DHT22;22841;50.252;18.688;2022-08-21T07:46:09;18.10;99.90
36924;DHT22;22841;50.252;18.688;2022-08-21T07:48:35;18.20;99.90
36924;DHT22;22841;50.252;18.688;2022-08-21T07:51:09;18.20;99.90
36924;DHT22;22841;50.252;18.688;2022-08-21T07:53:36;18.10;99.90
36924;DHT22;22841;50.252;18.688;2022-08-21T07:56:03;18.10;99.90
36924;DHT22;22841;50.252;18.688;2022-08-21T07:58:31;18.10;99.90
36924;DHT22;22841;50.252;18.688;2022-08-21T08:00:57;18.10;99.90
36924;DHT22;22841;50.252;18.688;2022-08-21T08:03:23;18.10;99.90
36924;DHT22;22841;50.252;18.688;2022-08-21T08:05:49;18.10;99.90
36924;DHT22;22841;50.252;18.688;2022-08-21T08:08:16;18.10;99.90
36924;DHT22;22841;50.252;18.688;2022-08-21T08:10:43;18.10;99.90
36924;DHT22;22841;50.252;18.688;2022-08-21T08:13:09;18.20;99.90
36924;DHT22;22841;50.252;18.688;2022-08-21T08:15:36;18.30;99.90
36924;DHT22;22841;50.252;18.688;2022-08-21T08:18:02;18.30;99.90
36924;DHT22;22841;50.252;18.688;2022-08-21T08:20:29;18.40;99.90
36924;DHT22;22841;50.252;18.688;2022-08-21T08:22:55;18.40;99.90
36924;DHT22;22841;50.252;18.688;2022-08-21T08:25:23;18.50;99.90
36924;DHT22;22841;50.252;18.688;2022-08-21T08:27:49;18.50;99.90
36924;DHT22;22841;50.252;18.688;2022-08-21T08:30:17;18.40;99.90
36924;DHT22;22841;50.252;18.688;2022-08-21T08:32:44;18.40;99.90
36924;DHT22;22841;50.252;18.688;2022-08-21T08:35:10;18.50;99.90
36924;DHT22;22841;50.252;18.688;2022-08-21T08:37:38;18.60;99.90
36924;DHT22;22841;50.252;18.688;2022-08-21T08:42:56;18.80;99.90
36924;DHT22;22841;50.252;18.688;2022-08-21T08:45:22;18.70;99.90
36924;DHT22;22841;50.252;18.688;2022-08-21T08:48:13;18.70;99.90
36924;DHT22;22841;50.252;18.688;2022-08-21T08:50:53;18.80;99.90
36924;DHT22;22841;50.252;18.688;2022-08-21T08:53:33;18.80;99.90
36924;DHT22;22841;50.252;18.688;2022-08-21T08:56:01;18.90;99.90
36924;DHT22;22841;50.252;18.688;2022-08-21T08:58:37;18.90;99.90
36924;DHT22;22841;50.252;18.688;2022-08-21T09:01:08;18.80;99.90
36924;DHT22;22841;50.252;18.688;2022-08-21T09:03:38;18.90;99.90
36924;DHT22;22841;50.252;18.688;2022-08-21T09:06:23;18.80;99.90
36924;DHT22;22841;50.252;18.688;2022-08-21T09:09:15;18.80;99.90
36924;DHT22;22841;50.252;18.688;2022-08-21T09:12:03;18.90;99.90
36924;DHT22;22841;50.252;18.688;2022-08-21T09:22:44;18.70;99.90
36924;DHT22;22841;50.252;18.688;2022-08-21T09:25:25;18.70;99.90
36924;DHT22;22841;50.252;18.688;2022-08-21T09:27:52;18.70;99.90
36924;DHT22;22841;50.252;18.688;2022-08-21T09:30:23;18.70;99.90
36924;DHT22;22841;50.252;18.688;2022-08-21T09:32:51;18.70;99.90
36924;DHT22;22841;50.252;18.688;2022-08-21T09:35:20;18.60;99.90
36924;DHT22;22841;50.252;18.688;2022-08-21T09:37:50;18.60;99.90
36924;DHT22;22841;50.252;18.688;2022-08-21T09:40:42;18.50;99.90
36924;DHT22;22841;50.252;18.688;2022-08-21T09:45:38;18.60;99.90
36924;DHT22;22841;50.252;18.688;2022-08-21T09:48:19;18.50;99.90
36924;DHT22;22841;50.252;18.688;2022-08-21T09:50:47;18.50;99.90
36924;DHT22;22841;50.252;18.688;2022-08-21T09:53:33;18.50;99.90
36924;DHT22;22841;50.252;18.688;2022-08-21T09:56:14;18.50;99.90
36924;DHT22;22841;50.252;18.688;2022-08-21T09:59:00;18.50;99.90
36924;DHT22;22841;50.252;18.688;2022-08-21T10:01:26;18.50;99.90
36924;DHT22;22841;50.252;18.688;2022-08-21T10:04:08;18.50;99.90
36924;DHT22;22841;50.252;18.688;2022-08-21T10:06:34;18.40;99.90
36924;DHT22;22841;50.252;18.688;2022-08-21T10:09:08;18.40;99.90
36924;DHT22;22841;50.252;18.688;2022-08-21T10:11:35;18.40;99.90
36924;DHT22;22841;50.252;18.688;2022-08-21T10:17:07;18.40;99.90
36924;DHT22;22841;50.252;18.688;2022-08-21T10:22:31;18.40;99.90
36924;DHT22;22841;50.252;18.688;2022-08-21T10:28:13;18.40;99.90
36924;DHT22;22841;50.252;18.688;2022-08-21T10:30:55;18.40;99.90
36924;DHT22;22841;50.252;18.688;2022-08-21T10:33:35;18.40;99.90
36924;DHT22;22841;50.252;18.688;2022-08-21T10:38:49;18.40;99.90
36924;DHT22;22841;50.252;18.688;2022-08-21T10:41:41;18.40;99.90
36924;DHT22;22841;50.252;18.688;2022-08-21T10:44:14;18.40;99.90
36924;DHT22;22841;50.252;18.688;2022-08-21T10:46:52;18.40;99.90
36924;DHT22;22841;50.252;18.688;2022-08-21T10:50:03;18.40;99.90
36924;DHT22;22841;50.252;18.688;2022-08-21T11:00:24;18.50;99.90
36924;DHT22;22841;50.252;18.688;2022-08-21T11:03:04;18.50;99.90
36924;DHT22;22841;50.252;18.688;2022-08-21T11:05:34;18.50;99.90
36924;DHT22;22841;50.252;18.688;2022-08-21T11:08:17;18.50;99.90
36924;DHT22;22841;50.252;18.688;2022-08-21T11:10:50;18.50;99.90
36924;DHT22;22841;50.252;18.688;2022-08-21T11:13:30;18.40;99.90
36924;DHT22;22841;50.252;18.688;2022-08-21T11:16:18;18.40;99.90
36924;DHT22;22841;50.252;18.688;2022-08-21T11:18:57;18.40;99.90
36924;DHT22;22841;50.252;18.688;2022-08-21T11:21:54;18.50;99.90
36924;DHT22;22841;50.252;18.688;2022-08-21T11:27:02;18.50;99.90
36924;DHT22;22841;50.252;18.688;2022-08-21T11:29:36;18.50;99.90
36924;DHT22;22841;50.252;18.688;2022-08-21T11:43:45;18.00;99.90
36924;DHT22;22841;50.252;18.688;2022-08-21T11:52:15;17.70;99.90
36924;DHT22;22841;50.252;18.688;2022-08-21T11:54:41;17.70;99.90
36924;DHT22;22841;50.252;18.688;2022-08-21T11:57:21;17.50;99.90
36924;DHT22;22841;50.252;18.688;2022-08-21T12:02:23;17.40;99.90
36924;DHT22;22841;50.252;18.688;2022-08-21T12:05:00;17.30;99.90
36924;DHT22;22841;50.252;18.688;2022-08-21T12:07:36;17.10;99.90
36924;DHT22;22841;50.252;18.688;2022-08-21T12:10:06;17.10;99.90
36924;DHT22;22841;50.252;18.688;2022-08-21T12:12:35;17.10;99.90
36924;DHT22;22841;50.252;18.688;2022-08-21T12:20:58;17.00;99.90
36924;DHT22;22841;50.252;18.688;2022-08-21T12:23:32;17.00;99.90
36924;DHT22;22841;50.252;18.688;2022-08-21T12:26:02;17.00;99.90
36924;DHT22;22841;50.252;18.688;2022-08-21T12:28:30;17.00;99.90
36924;DHT22;22841;50.252;18.688;2022-08-21T12:30:57;17.00;99.90
36924;DHT22;22841;50.252;18.688;2022-08-21T12:33:49;17.00;99.90
36924;DHT22;22841;50.252;18.688;2022-08-21T12:36:17;17.00;99.90
36924;DHT22;22841;50.252;18.688;2022-08-21T12:39:05;16.90;99.90
36924;DHT22;22841;50.252;18.688;2022-08-21T12:42:03;17.00;99.90
36924;DHT22;22841;50.252;18.688;2022-08-21T12:44:46;17.00;99.90
36924;DHT22;22841;50.252;18.688;2022-08-21T12:47:30;17.00;99.90
36924;DHT22;22841;50.252;18.688;2022-08-21T12:50:14;16.90;99.90
36924;DHT22;22841;50.252;18.688;2022-08-21T12:55:27;16.90;99.90
36924;DHT22;22841;50.252;18.688;2022-08-21T12:57:53;16.80;99.90
36924;DHT22;22841;50.252;18.688;2022-08-21T13:00:23;16.80;99.90
36924;DHT22;22841;50.252;18.688;2022-08-21T13:02:50;16.70;99.90
36924;DHT22;22841;50.252;18.688;2022-08-21T13:05:36;16.70;99.90
36924;DHT22;22841;50.252;18.688;2022-08-21T13:08:04;16.70;99.90
36924;DHT22;22841;50.252;18.688;2022-08-21T13:10:33;16.60;99.90
36924;DHT22;22841;50.252;18.688;2022-08-21T13:13:12;16.60;99.90
36924;DHT22;22841;50.252;18.688;2022-08-21T13:15:42;16.60;99.90
36924;DHT22;22841;50.252;18.688;2022-08-21T13:18:08;16.60;99.90
36924;DHT22;22841;50.252;18.688;2022-08-21T13:20:44;16.60;99.90
36924;DHT22;22841;50.252;18.688;2022-08-21T13:23:28;16.60;99.90
36924;DHT22;22841;50.252;18.688;2022-08-21T13:25:55;16.60;99.90
36924;DHT22;22841;50.252;18.688;2022-08-21T13:28:22;16.60;99.90
36924;DHT22;22841;50.252;18.688;2022-08-21T13:30:53;16.60;99.90
36924;DHT22;22841;50.252;18.688;2022-08-21T13:33:23;16.60;99.90
36924;DHT22;22841;50.252;18.688;2022-08-21T13:38:22;16.60;99.90
36924;DHT22;22841;50.252;18.688;2022-08-21T13:40:53;16.70;99.90
36924;DHT22;22841;50.252;18.688;2022-08-21T13:43:27;16.70;99.90
36924;DHT22;22841;50.252;18.688;2022-08-21T13:45:55;16.70;99.90
36924;DHT22;22841;50.252;18.688;2022-08-21T13:48:24;16.70;99.90
36924;DHT22;22841;50.252;18.688;2022-08-21T13:50:52;16.70;99.90
36924;DHT22;22841;50.252;18.688;2022-08-21T13:53:32;16.60;99.90
36924;DHT22;22841;50.252;18.688;2022-08-21T13:55:59;16.60;99.90
36924;DHT22;22841;50.252;18.688;2022-08-21T13:58:28;16.60;99.90
36924;DHT22;22841;50.252;18.688;2022-08-21T14:00:56;16.60;99.90
36924;DHT22;22841;50.252;18.688;2022-08-21T14:03:34;16.50;99.90
36924;DHT22;22841;50.252;18.688;2022-08-21T14:06:03;16.60;99.90
36924;DHT22;22841;50.252;18.688;2022-08-21T14:08:38;16.50;99.90
36924;DHT22;22841;50.252;18.688;2022-08-21T14:11:11;16.40;99.90
36924;DHT22;22841;50.252;18.688;2022-08-21T14:13:43;16.30;99.90
36924;DHT22;22841;50.252;18.688;2022-08-21T14:18:50;16.20;99.90
36924;DHT22;22841;50.252;18.688;2022-08-21T14:21:35;16.20;99.90
36924;DHT22;22841;50.252;18.688;2022-08-21T14:29:26;16.10;99.90
36924;DHT22;22841;50.252;18.688;2022-08-21T14:31:58;16.10;99.90
36924;DHT22;22841;50.252;18.688;2022-08-21T14:34:27;16.10;99.90
36924;DHT22;22841;50.252;18.688;2022-08-21T14:36:55;16.10;99.90
36924;DHT22;22841;50.252;18.688;2022-08-21T14:39:22;16.00;99.90
36924;DHT22;22841;50.252;18.688;2022-08-21T14:41:48;16.00;99.90
36924;DHT22;22841;50.252;18.688;2022-08-21T14:44:16;15.90;99.90
36924;DHT22;22841;50.252;18.688;2022-08-21T14:46:42;16.00;99.90
36924;DHT22;22841;50.252;18.688;2022-08-21T14:49:09;15.90;99.90
36924;DHT22;22841;50.252;18.688;2022-08-21T14:51:35;15.90;99.90
36924;DHT22;22841;50.252;18.688;2022-08-21T14:54:01;15.90;99.90
36924;DHT22;22841;50.252;18.688;2022-08-21T14:56:27;15.90;99.90
36924;DHT22;22841;50.252;18.688;2022-08-21T14:58:53;16.00;99.90
36924;DHT22;22841;50.252;18.688;2022-08-21T15:01:22;15.90;99.90
36924;DHT22;22841;50.252;18.688;2022-08-21T15:03:48;15.90;99.90
36924;DHT22;22841;50.252;18.688;2022-08-21T15:06:15;15.90;99.90
36924;DHT22;22841;50.252;18.688;2022-08-21T15:08:43;16.00;99.90
36924;DHT22;22841;50.252;18.688;2022-08-21T15:11:14;15.90;99.90
36924;DHT22;22841;50.252;18.688;2022-08-21T15:13:42;15.90;99.90
36924;DHT22;22841;50.252;18.688;2022-08-21T15:16:10;15.90;99.90
36924;DHT22;22841;50.252;18.688;2022-08-21T15:18:37;15.90;99.90
36924;DHT22;22841;50.252;18.688;2022-08-21T15:21:03;15.80;99.90
36924;DHT22;22841;50.252;18.688;2022-08-21T15:23:30;15.80;99.90
36924;DHT22;22841;50.252;18.688;2022-08-21T15:25:56;15.80;99.90
36924;DHT22;22841;50.252;18.688;2022-08-21T15:28:23;15.90;99.90
36924;DHT22;22841;50.252;18.688;2022-08-21T15:30:51;15.90;99.90
36924;DHT22;22841;50.252;18.688;2022-08-21T15:33:17;15.80;99.90
36924;DHT22;22841;50.252;18.688;2022-08-21T15:35:44;15.80;99.90
36924;DHT22;22841;50.252;18.688;2022-08-21T15:38:12;15.90;99.90
36924;DHT22;22841;50.252;18.688;2022-08-21T15:40:40;15.80;99.90
36924;DHT22;22841;50.252;18.688;2022-08-21T15:43:15;15.90;99.90
36924;DHT22;22841;50.252;18.688;2022-08-21T15:45:45;15.80;99.90
36924;DHT22;22841;50.252;18.688;2022-08-21T15:48:11;15.80;99.90
36924;DHT22;22841;50.252;18.688;2022-08-21T15:50:37;15.90;99.90
36924;DHT22;22841;50.252;18.688;2022-08-21T15:53:03;15.90;99.90
36924;DHT22;22841;50.252;18.688;2022-08-21T15:55:32;15.90;99.90
36924;DHT22;22841;50.252;18.688;2022-08-21T15:57:59;15.90;99.90
36924;DHT22;22841;50.252;18.688;2022-08-21T16:00:25;15.80;99.90
36924;DHT22;22841;50.252;18.688;2022-08-21T16:02:55;15.90;99.90
36924;DHT22;22841;50.252;18.688;2022-08-21T16:05:21;15.90;99.90
36924;DHT22;22841;50.252;18.688;2022-08-21T16:07:49;15.90;99.90
36924;DHT22;22841;50.252;18.688;2022-08-21T16:10:19;15.80;99.90
36924;DHT22;22841;50.252;18.688;2022-08-21T16:12:51;15.80;99.90
36924;DHT22;22841;50.252;18.688;2022-08-21T16:15:19;15.80;99.90
36924;DHT22;22841;50.252;18.688;2022-08-21T16:17:47;15.90;99.90
36924;DHT22;22841;50.252;18.688;2022-08-21T16:20:17;15.90;99.90
36924;DHT22;22841;50.252;18.688;2022-08-21T16:22:45;15.90;99.90
36924;DHT22;22841;50.252;18.688;2022-08-21T16:25:14;15.90;99.90
36924;DHT22;22841;50.252;18.688;2022-08-21T16:27:42;15.90;99.90
36924;DHT22;22841;50.252;18.688;2022-08-21T16:30:09;15.90;99.90
36924;DHT22;22841;50.252;18.688;2022-08-21T16:32:36;15.90;99.90
36924;DHT22;22841;50.252;18.688;2022-08-21T16:35:03;15.90;99.90
36924;DHT22;22841;50.252;18.688;2022-08-21T16:37:29;15.90;99.90
36924;DHT22;22841;50.252;18.688;2022-08-21T16:39:55;15.90;99.90
36924;DHT22;22841;50.252;18.688;2022-08-21T16:42:23;15.90;99.90
36924;DHT22;22841;50.252;18.688;2022-08-21T16:44:52;15.90;99.90